Time;durP1;ratioP1;P1;durP2;ratioP2;P2;SDS_P1;SDS_P2;PMS_P1;PMS_P2;Temp;Humidity;BMP_temperature;BMP_pressure;BME280_temperature;BME280_humidity;BME280_pressure;Samples;Min_cycle;Max_cycle;Signal;HPM_P1;HPM_P2
2021/04/02 00:00:22;;;;;;;2.08;1.40;;;7.50;91.70;;;;;;5010720;28;20041;-69
2021/04/02 00:02:47;;;;;;;3.00;1.50;;;7.50;91.80;;;;;;5027141;28;20030;-70
2021/04/02 00:05:15;;;;;;;3.78;1.50;;;7.50;91.70;;;;;;5011785;28;20037;-69
2021/04/02 00:07:41;;;;;;;1.80;1.27;;;7.60;91.70;;;;;;5029322;28;20033;-69
2021/04/02 00:10:19;;;;;;;2.10;1.23;;;7.50;91.60;;;;;;5026410;28;20034;-69
2021/04/02 00:12:46;;;;;;;3.60;1.30;;;7.50;91.60;;;;;;5030374;28;20069;-69
2021/04/02 00:15:21;;;;;;;2.42;1.65;;;7.60;91.60;;;;;;5018093;28;20430;-69
2021/04/02 00:17:46;;;;;;;4.55;2.75;;;7.60;91.50;;;;;;5018855;28;20053;-69
2021/04/02 00:20:16;;;;;;;5.18;2.10;;;7.50;91.50;;;;;;5009400;28;20378;-69
2021/04/02 00:22:43;;;;;;;4.82;1.45;;;7.50;91.50;;;;;;4995720;28;20093;-70
2021/04/02 00:25:11;;;;;;;2.92;1.63;;;7.40;91.50;;;;;;5010995;28;20042;-70
2021/04/02 00:27:36;;;;;;;2.50;1.58;;;7.50;91.50;;;;;;5012538;28;20026;-70
2021/04/02 00:30:14;;;;;;;2.47;1.40;;;7.50;91.50;;;;;;5013905;28;20383;-70
2021/04/02 00:32:40;;;;;;;4.22;1.52;;;7.50;91.30;;;;;;5013340;28;20060;-69
2021/04/02 00:35:06;;;;;;;4.85;1.50;;;7.40;91.40;;;;;;4995586;28;20372;-70
2021/04/02 00:37:32;;;;;;;2.47;1.45;;;7.40;91.50;;;;;;5026249;28;20052;-70
2021/04/02 00:39:57;;;;;;;2.38;1.55;;;7.30;91.50;;;;;;5014002;28;20018;-70
2021/04/02 00:42:23;;;;;;;2.45;1.45;;;7.40;91.40;;;;;;5027433;28;20501;-70
2021/04/02 00:44:49;;;;;;;2.90;1.40;;;7.40;91.40;;;;;;5014684;28;20033;-70
2021/04/02 00:47:14;;;;;;;3.92;1.60;;;7.50;91.40;;;;;;4998932;28;20037;-70
2021/04/02 00:49:40;;;;;;;2.83;1.35;;;7.50;91.30;;;;;;5013709;28;20041;-70
2021/04/02 00:52:06;;;;;;;3.05;1.63;;;7.50;91.20;;;;;;5011109;28;20026;-70
2021/04/02 00:54:31;;;;;;;2.72;1.40;;;7.50;91.10;;;;;;5015345;28;20471;-70
2021/04/02 00:56:57;;;;;;;3.53;1.90;;;7.50;90.90;;;;;;5013632;28;20083;-70
2021/04/02 00:59:22;;;;;;;2.72;1.33;;;7.50;90.80;;;;;;5013985;28;20443;-71
2021/04/02 01:01:48;;;;;;;4.45;1.80;;;7.50;90.80;;;;;;5015259;28;20038;-70
2021/04/02 01:04:13;;;;;;;4.82;1.65;;;7.40;90.60;;;;;;5012878;28;20063;-70
2021/04/02 01:06:41;;;;;;;5.18;2.03;;;7.40;90.60;;;;;;5013616;28;20024;-71
2021/04/02 01:09:07;;;;;;;4.38;1.95;;;7.40;90.70;;;;;;5014833;28;20479;-70
2021/04/02 01:11:33;;;;;;;3.45;1.55;;;7.40;90.60;;;;;;5012197;28;20028;-70
2021/04/02 01:13:59;;;;;;;3.30;1.70;;;7.40;90.40;;;;;;5034380;28;20029;-70
2021/04/02 01:16:30;;;;;;;4.50;1.67;;;7.40;90.20;;;;;;5017711;28;20117;-72
2021/04/02 01:19:10;;;;;;;2.55;1.55;;;7.40;90.20;;;;;;5034108;28;20482;-71
2021/04/02 01:21:51;;;;;;;4.13;1.80;;;7.30;90.10;;;;;;5021978;28;20037;-72
2021/04/02 01:24:23;;;;;;;3.75;1.85;;;7.30;90.10;;;;;;5009931;28;20030;-72
2021/04/02 01:26:56;;;;;;;4.25;1.90;;;7.30;90.10;;;;;;5011304;28;20037;-71
2021/04/02 01:29:28;;;;;;;3.92;1.70;;;7.30;90.20;;;;;;5033555;28;20036;-71
2021/04/02 01:31:56;;;;;;;4.90;1.70;;;7.20;90.10;;;;;;5023052;28;20030;-71
2021/04/02 01:34:30;;;;;;;3.13;1.60;;;7.30;90.10;;;;;;5033844;28;20025;-71
2021/04/02 01:37:03;;;;;;;3.35;1.40;;;7.20;90.10;;;;;;5018219;28;20117;-70
2021/04/02 01:39:31;;;;;;;4.22;1.52;;;7.20;90.10;;;;;;4994377;28;20065;-71
2021/04/02 01:41:58;;;;;;;4.00;1.58;;;7.30;90.10;;;;;;4994873;28;20030;-72
2021/04/02 01:44:24;;;;;;;4.15;1.80;;;7.20;90.00;;;;;;5013659;28;20148;-71
2021/04/02 01:46:51;;;;;;;3.38;2.30;;;7.20;90.00;;;;;;5012652;28;20074;-71
2021/04/02 01:49:18;;;;;;;3.17;1.52;;;7.20;90.00;;;;;;5027065;28;20099;-71
2021/04/02 01:51:45;;;;;;;3.22;1.80;;;7.20;90.00;;;;;;5015721;28;20025;-71
2021/04/02 01:54:11;;;;;;;3.65;1.60;;;7.10;90.00;;;;;;5022098;28;20041;-71
2021/04/02 01:56:38;;;;;;;6.70;2.17;;;7.10;90.10;;;;;;5014535;28;20026;-71
2021/04/02 01:59:05;;;;;;;5.10;1.92;;;7.10;90.00;;;;;;5024613;28;20046;-71
2021/04/02 02:01:38;;;;;;;5.93;2.13;;;7.10;90.00;;;;;;5017984;28;20120;-71
2021/04/02 02:04:06;;;;;;;3.47;1.70;;;7.10;90.00;;;;;;5017740;28;20041;-71
2021/04/02 02:06:32;;;;;;;4.88;1.90;;;7.10;89.80;;;;;;5009118;28;20503;-71
2021/04/02 02:08:58;;;;;;;4.32;1.90;;;7.00;90.20;;;;;;5014655;28;20091;-71
2021/04/02 02:11:25;;;;;;;7.50;1.55;;;6.90;90.20;;;;;;5011691;28;20125;-72
2021/04/02 02:14:09;;;;;;;4.15;2.00;;;6.80;90.20;;;;;;5013899;28;20026;-71
2021/04/02 02:16:38;;;;;;;5.72;2.30;;;6.70;90.30;;;;;;5003046;28;20019;-70
2021/04/02 02:19:14;;;;;;;3.97;2.38;;;6.70;90.40;;;;;;5012702;28;20033;-71
2021/04/02 02:21:43;;;;;;;5.82;2.75;;;6.50;90.60;;;;;;5012529;28;20033;-72
2021/04/02 02:24:10;;;;;;;6.35;2.65;;;6.50;90.80;;;;;;4995567;28;20234;-72
2021/04/02 02:26:38;;;;;;;7.35;2.53;;;6.50;90.70;;;;;;5013352;28;20029;-71
2021/04/02 02:29:04;;;;;;;4.97;2.42;;;6.40;90.80;;;;;;5012017;28;20156;-71
2021/04/02 02:31:29;;;;;;;4.50;2.72;;;6.40;91.10;;;;;;5011680;28;20113;-71
2021/04/02 02:33:55;;;;;;;6.75;2.40;;;6.30;91.20;;;;;;5012815;28;20378;-70
2021/04/02 02:36:21;;;;;;;4.07;2.30;;;6.20;91.30;;;;;;5011984;28;20179;-71
2021/04/02 02:38:47;;;;;;;3.33;1.90;;;6.10;91.50;;;;;;5014757;28;20026;-70
2021/04/02 02:41:13;;;;;;;4.45;2.20;;;6.00;91.60;;;;;;4993815;28;20372;-71
2021/04/02 02:43:39;;;;;;;5.97;2.05;;;6.00;91.90;;;;;;5014831;28;20033;-71
2021/04/02 02:46:04;;;;;;;3.67;2.35;;;5.90;92.10;;;;;;5012130;28;20018;-70
2021/04/02 02:48:30;;;;;;;3.80;1.90;;;5.90;92.10;;;;;;5011589;28;20033;-71
2021/04/02 02:50:57;;;;;;;5.72;2.28;;;5.90;92.00;;;;;;5010401;28;20029;-71
2021/04/02 02:53:25;;;;;;;5.38;2.15;;;5.90;92.10;;;;;;5011592;28;20590;-71
2021/04/02 02:55:52;;;;;;;4.07;1.95;;;5.90;91.90;;;;;;5012147;28;20038;-70
2021/04/02 02:58:25;;;;;;;5.82;2.60;;;5.90;92.10;;;;;;5012254;28;20034;-70
2021/04/02 03:00:52;;;;;;;4.80;2.47;;;5.80;92.20;;;;;;5011292;28;20521;-71
2021/04/02 03:03:20;;;;;;;3.65;2.60;;;5.70;92.10;;;;;;5017964;28;20048;-71
2021/04/02 03:05:49;;;;;;;7.72;2.72;;;5.80;92.00;;;;;;4997457;28;20030;-70
2021/04/02 03:08:21;;;;;;;4.05;2.17;;;5.70;92.00;;;;;;5020787;28;20393;-70
2021/04/02 03:10:48;;;;;;;4.07;2.60;;;5.70;92.20;;;;;;5011667;28;20041;-70
2021/04/02 03:13:17;;;;;;;3.55;2.15;;;5.70;92.20;;;;;;5027258;28;20034;-70
2021/04/02 03:15:43;;;;;;;5.68;2.58;;;5.70;92.10;;;;;;5009645;28;20037;-71
2021/04/02 03:18:14;;;;;;;5.03;2.55;;;5.70;92.20;;;;;;5025969;28;20029;-72
2021/04/02 03:20:40;;;;;;;4.68;2.40;;;5.60;92.50;;;;;;5021684;28;20382;-70
2021/04/02 03:23:08;;;;;;;3.70;2.58;;;5.60;92.70;;;;;;5025021;28;20021;-70
2021/04/02 03:25:35;;;;;;;5.18;3.05;;;5.50;92.90;;;;;;5022931;28;20052;-70
2021/04/02 03:28:03;;;;;;;5.63;2.70;;;5.40;92.80;;;;;;5010911;28;20367;-70
2021/04/02 03:30:29;;;;;;;4.75;2.50;;;5.40;92.70;;;;;;5011133;28;20266;-71
2021/04/02 03:33:02;;;;;;;5.40;2.65;;;5.40;93.00;;;;;;5023903;28;20035;-71
2021/04/02 03:35:29;;;;;;;4.13;2.30;;;5.40;92.80;;;;;;5006603;28;20509;-71
2021/04/02 03:37:56;;;;;;;5.47;2.92;;;5.40;92.60;;;;;;5019635;28;20057;-71
2021/04/02 03:40:23;;;;;;;3.90;2.92;;;5.30;92.60;;;;;;4993823;28;20033;-72
2021/04/02 03:42:53;;;;;;;5.57;2.58;;;5.30;92.80;;;;;;5017999;28;20052;-71
2021/04/02 03:45:20;;;;;;;5.05;2.88;;;5.30;93.20;;;;;;5011577;28;20126;-71
2021/04/02 03:47:48;;;;;;;4.55;3.67;;;5.20;93.10;;;;;;5009672;28;20037;-71
2021/04/02 03:50:16;;;;;;;6.13;2.90;;;5.20;93.00;;;;;;5011722;28;20033;-71
2021/04/02 03:52:46;;;;;;;5.45;2.80;;;5.20;93.00;;;;;;5020872;28;20033;-71
2021/04/02 03:55:14;;;;;;;6.32;2.90;;;5.30;93.10;;;;;;5011584;28;20026;-71
2021/04/02 03:57:41;;;;;;;4.35;2.92;;;5.30;92.90;;;;;;5003102;28;20030;-71
2021/04/02 04:00:29;;;;;;;7.05;3.05;;;5.30;93.00;;;;;;5011353;28;20058;-71
2021/04/02 04:02:56;;;;;;;5.55;3.00;;;5.30;93.00;;;;;;5014547;28;20037;-68
2021/04/02 04:05:22;;;;;;;6.50;3.28;;;5.30;93.00;;;;;;5017727;28;20034;-68
2021/04/02 04:07:48;;;;;;;4.80;3.00;;;5.30;93.20;;;;;;5025483;28;20069;-68
2021/04/02 04:10:17;;;;;;;5.45;2.70;;;5.30;93.20;;;;;;5015511;28;20475;-68
2021/04/02 04:12:46;;;;;;;4.65;2.60;;;5.30;93.10;;;;;;5004898;28;20022;-67
2021/04/02 04:15:13;;;;;;;5.22;2.95;;;5.40;93.00;;;;;;5012667;28;20538;-68
2021/04/02 04:17:41;;;;;;;6.78;2.92;;;5.30;93.00;;;;;;5020106;28;20510;-68
2021/04/02 04:20:09;;;;;;;5.50;2.70;;;5.30;93.10;;;;;;5015338;28;20387;-68
2021/04/02 04:22:37;;;;;;;7.78;3.15;;;5.40;93.00;;;;;;5005671;28;20482;-68
2021/04/02 04:25:04;;;;;;;6.82;2.90;;;5.40;93.00;;;;;;5015428;28;20053;-68
2021/04/02 04:27:32;;;;;;;4.82;3.38;;;5.40;92.90;;;;;;5019895;28;20412;-68
2021/04/02 04:29:59;;;;;;;4.43;2.63;;;5.40;93.00;;;;;;5014812;28;20038;-69
2021/04/02 04:32:27;;;;;;;5.93;3.17;;;5.50;92.90;;;;;;5025114;28;20087;-69
2021/04/02 04:34:52;;;;;;;4.63;2.80;;;5.50;92.90;;;;;;5016057;28;20038;-69
2021/04/02 04:37:19;;;;;;;5.30;3.10;;;5.50;92.90;;;;;;5021112;28;20037;-69
2021/04/02 04:39:47;;;;;;;7.75;3.35;;;5.50;93.00;;;;;;4997206;28;20034;-69
2021/04/02 04:42:16;;;;;;;4.95;2.92;;;5.50;93.10;;;;;;5015369;28;20037;-69
2021/04/02 04:44:44;;;;;;;6.22;2.88;;;5.50;93.10;;;;;;5013366;28;20038;-69
2021/04/02 04:47:10;;;;;;;6.55;3.13;;;5.50;93.00;;;;;;5019355;28;20033;-69
2021/04/02 04:49:35;;;;;;;5.07;3.22;;;5.50;92.90;;;;;;5029049;28;20053;-68
2021/04/02 04:52:03;;;;;;;5.65;2.90;;;5.50;92.90;;;;;;5018966;28;20029;-69
2021/04/02 04:54:32;;;;;;;4.72;2.72;;;5.50;92.90;;;;;;5012817;28;20581;-69
2021/04/02 04:56:58;;;;;;;6.38;3.13;;;5.50;92.90;;;;;;5019268;28;20064;-69
2021/04/02 04:59:26;;;;;;;8.23;3.15;;;5.60;93.00;;;;;;5017113;28;20050;-69
2021/04/02 05:01:55;;;;;;;5.93;3.40;;;5.50;93.00;;;;;;5016105;28;20083;-69
2021/04/02 05:04:22;;;;;;;4.95;3.40;;;5.60;93.10;;;;;;5032808;28;20033;-70
2021/04/02 05:06:52;;;;;;;6.93;3.10;;;5.60;93.10;;;;;;5013460;28;20096;-71
2021/04/02 05:09:19;;;;;;;5.68;3.50;;;5.60;93.10;;;;;;5014284;28;20356;-70
2021/04/02 05:11:46;;;;;;;6.53;3.13;;;5.70;93.20;;;;;;5015939;28;20025;-71
2021/04/02 05:14:12;;;;;;;5.20;3.40;;;5.70;93.20;;;;;;5029969;28;20030;-71
2021/04/02 05:16:39;;;;;;;6.80;3.53;;;5.80;93.40;;;;;;5013971;28;20072;-70
2021/04/02 05:19:06;;;;;;;5.18;3.38;;;5.80;93.20;;;;;;5032058;28;20038;-72
2021/04/02 05:21:31;;;;;;;6.38;3.22;;;5.70;93.10;;;;;;5014646;28;20120;-71
2021/04/02 05:23:57;;;;;;;7.00;3.80;;;5.80;93.20;;;;;;5033746;28;20212;-71
2021/04/02 05:26:22;;;;;;;6.82;3.75;;;5.80;93.20;;;;;;5013299;28;20421;-71
2021/04/02 05:28:49;;;;;;;4.75;3.20;;;5.80;93.20;;;;;;4994935;28;20030;-71
2021/04/02 05:31:15;;;;;;;6.05;3.50;;;5.90;93.10;;;;;;5011660;28;20554;-71
2021/04/02 05:33:41;;;;;;;6.25;3.63;;;5.90;93.20;;;;;;5008933;28;20033;-71
2021/04/02 05:36:07;;;;;;;5.50;3.08;;;5.90;93.20;;;;;;5016266;28;20030;-71
2021/04/02 05:38:32;;;;;;;5.65;3.47;;;6.00;93.20;;;;;;5030382;28;20088;-71
2021/04/02 05:41:12;;;;;;;7.78;3.50;;;6.10;93.20;;;;;;5013934;28;20030;-71
2021/04/02 05:43:50;;;;;;;6.57;3.55;;;6.10;93.10;;;;;;5033507;28;20382;-71
2021/04/02 05:46:17;;;;;;;7.25;3.78;;;6.10;93.10;;;;;;5011972;28;20135;-71
2021/04/02 05:48:44;;;;;;;6.78;3.83;;;6.10;93.10;;;;;;5033681;28;20399;-69
2021/04/02 05:51:11;;;;;;;6.50;3.45;;;6.20;93.10;;;;;;5012149;28;20030;-69
2021/04/02 05:53:38;;;;;;;6.60;3.45;;;6.20;93.10;;;;;;5008930;28;20527;-69
2021/04/02 05:56:04;;;;;;;11.25;5.20;;;6.30;93.00;;;;;;5012874;28;20030;-71
2021/04/02 05:58:30;;;;;;;6.68;3.60;;;6.30;92.90;;;;;;5030875;28;20422;-71
2021/04/02 06:00:56;;;;;;;6.25;3.67;;;6.30;93.00;;;;;;5013439;28;20046;-68
2021/04/02 06:03:22;;;;;;;6.72;3.97;;;6.40;93.30;;;;;;5016356;28;20037;-68
2021/04/02 06:05:48;;;;;;;7.50;3.75;;;6.40;93.10;;;;;;5008723;28;20532;-71
2021/04/02 06:08:15;;;;;;;9.88;3.90;;;6.50;93.00;;;;;;5020913;28;20430;-70
2021/04/02 06:10:40;;;;;;;7.35;4.60;;;6.60;92.90;;;;;;4996440;28;20368;-72
2021/04/02 06:13:06;;;;;;;6.03;3.90;;;6.60;92.80;;;;;;5009114;28;20037;-70
2021/04/02 06:15:33;;;;;;;5.20;3.92;;;6.60;92.80;;;;;;4995044;28;20514;-72
2021/04/02 06:18:08;;;;;;;9.85;4.00;;;6.70;92.90;;;;;;5026081;28;20029;-72
2021/04/02 06:20:37;;;;;;;8.63;4.20;;;6.80;93.00;;;;;;5013816;28;20394;-72
2021/04/02 06:23:14;;;;;;;8.18;4.45;;;6.80;92.80;;;;;;5010801;28;20030;-73
2021/04/02 06:26:01;;;;;;;7.78;4.57;;;6.90;92.60;;;;;;5012215;28;20374;-72
2021/04/02 06:28:38;;;;;;;8.32;4.65;;;6.90;92.70;;;;;;5010688;28;20087;-73
2021/04/02 06:31:04;;;;;;;7.88;5.55;;;6.90;92.60;;;;;;5012877;28;20465;-73
2021/04/02 06:33:38;;;;;;;9.18;4.90;;;6.90;92.60;;;;;;5011819;28;20033;-72
2021/04/02 06:36:16;;;;;;;7.25;5.00;;;7.00;92.60;;;;;;5008177;28;20496;-71
2021/04/02 06:38:57;;;;;;;10.38;5.57;;;7.10;92.50;;;;;;5015768;28;20151;-71
2021/04/02 06:41:25;;;;;;;9.52;5.28;;;7.20;92.40;;;;;;5010365;28;20742;-69
2021/04/02 06:43:54;;;;;;;9.60;5.53;;;7.20;92.30;;;;;;5006476;28;20034;-70
2021/04/02 06:46:24;;;;;;;8.20;5.63;;;7.30;92.20;;;;;;5012580;28;20045;-70
2021/04/02 06:48:51;;;;;;;8.40;5.40;;;7.20;92.30;;;;;;5005260;28;20037;-69
2021/04/02 06:51:20;;;;;;;11.13;5.32;;;7.20;92.00;;;;;;5010091;28;20061;-69
2021/04/02 06:53:51;;;;;;;8.02;4.93;;;7.30;91.90;;;;;;5009625;28;20030;-70
2021/04/02 06:56:19;;;;;;;9.25;5.20;;;7.20;91.80;;;;;;5027075;28;20576;-70
2021/04/02 06:58:45;;;;;;;9.25;5.55;;;7.20;91.90;;;;;;5015047;28;20032;-69
2021/04/02 07:01:14;;;;;;;8.52;5.28;;;7.20;91.90;;;;;;5010768;28;20041;-69
2021/04/02 07:03:42;;;;;;;10.02;5.70;;;7.20;92.00;;;;;;5010956;28;20108;-70
2021/04/02 07:06:08;;;;;;;9.77;5.53;;;7.20;92.20;;;;;;5011310;28;20032;-69
2021/04/02 07:08:37;;;;;;;8.30;5.45;;;7.30;92.30;;;;;;5014297;28;20037;-70
2021/04/02 07:11:02;;;;;;;9.20;5.70;;;7.30;92.20;;;;;;5011615;28;20386;-71
2021/04/02 07:13:38;;;;;;;10.23;5.97;;;7.40;92.10;;;;;;5011644;28;20033;-68
2021/04/02 07:16:04;;;;;;;11.05;5.40;;;7.50;92.10;;;;;;5012469;28;20545;-71
2021/04/02 07:18:30;;;;;;;9.20;6.05;;;7.60;92.20;;;;;;5012096;28;20084;-75
2021/04/02 07:20:56;;;;;;;11.93;6.45;;;7.80;92.00;;;;;;5012063;28;20038;-74
2021/04/02 07:23:22;;;;;;;10.88;6.25;;;7.80;91.80;;;;;;5018996;28;20014;-75
2021/04/02 07:25:47;;;;;;;10.57;6.75;;;7.90;91.80;;;;;;5009884;28;20037;-76
2021/04/02 07:28:15;;;;;;;12.55;6.75;;;7.90;91.70;;;;;;5017075;28;20105;-73
2021/04/02 07:30:44;;;;;;;9.98;6.55;;;7.90;91.70;;;;;;5011840;28;20034;-71
2021/04/02 07:33:11;;;;;;;11.15;7.03;;;8.00;91.60;;;;;;5008468;28;20153;-72
2021/04/02 07:35:38;;;;;;;10.68;7.15;;;8.10;91.60;;;;;;4994135;28;20453;-71
2021/04/02 07:38:07;;;;;;;12.25;7.90;;;8.10;91.30;;;;;;5016654;28;20032;-72
2021/04/02 07:40:35;;;;;;;14.07;8.70;;;8.20;91.50;;;;;;5011301;28;20441;-72
2021/04/02 07:43:08;;;;;;;11.65;8.00;;;8.20;91.30;;;;;;4992834;28;20083;-72
2021/04/02 07:45:37;;;;;;;12.75;8.00;;;8.30;91.20;;;;;;5011906;28;20056;-72
2021/04/02 07:48:17;;;;;;;12.63;7.53;;;8.30;91.10;;;;;;5022997;28;20099;-71
2021/04/02 07:50:46;;;;;;;13.77;7.90;;;8.50;91.00;;;;;;5031708;28;20049;-72
2021/04/02 07:53:19;;;;;;;11.43;7.60;;;8.50;91.00;;;;;;5028802;28;20121;-72
2021/04/02 07:55:53;;;;;;;12.40;8.20;;;8.70;90.90;;;;;;5031763;28;20067;-72
2021/04/02 07:58:24;;;;;;;11.20;7.43;;;8.90;90.70;;;;;;5023755;28;20041;-72
2021/04/02 08:00:53;;;;;;;10.50;7.47;;;8.90;90.60;;;;;;5031082;28;20042;-72
2021/04/02 08:03:21;;;;;;;10.77;6.85;;;9.00;90.30;;;;;;5027927;28;20571;-74
2021/04/02 08:06:08;;;;;;;14.82;8.18;;;9.00;89.70;;;;;;5018354;28;20505;-73
2021/04/02 08:08:48;;;;;;;12.25;8.30;;;9.00;89.30;;;;;;5030070;28;20100;-72
2021/04/02 08:11:26;;;;;;;12.73;8.55;;;9.00;89.10;;;;;;5026302;28;20030;-72
2021/04/02 08:13:53;;;;;;;14.13;8.30;;;9.00;89.00;;;;;;5011151;28;20030;-69
2021/04/02 08:16:32;;;;;;;13.30;8.20;;;9.00;89.00;;;;;;4993415;28;20030;-73
2021/04/02 08:19:20;;;;;;;12.60;7.90;;;9.10;88.90;;;;;;5031269;28;20030;-73
2021/04/02 08:22:10;;;;;;;16.80;11.25;;;9.20;88.70;;;;;;5028065;28;20039;-72
2021/04/02 08:24:38;;;;;;;17.85;10.93;;;9.20;88.00;;;;;;5029747;28;20034;-73
2021/04/02 08:27:05;;;;;;;17.75;12.00;;;9.30;88.00;;;;;;5027955;28;20037;-73
2021/04/02 08:29:32;;;;;;;17.63;11.57;;;9.30;87.00;;;;;;5031281;28;20040;-73
2021/04/02 08:32:00;;;;;;;15.63;10.18;;;9.30;87.10;;;;;;5028099;28;20052;-73
2021/04/02 08:34:28;;;;;;;14.73;10.27;;;9.20;87.20;;;;;;5015621;28;20141;-73
2021/04/02 08:36:56;;;;;;;15.30;9.98;;;9.20;87.10;;;;;;5003370;28;20085;-73
2021/04/02 08:39:25;;;;;;;13.05;9.27;;;9.20;86.90;;;;;;4990690;28;20394;-71
2021/04/02 08:41:55;;;;;;;12.32;8.60;;;9.10;86.30;;;;;;5001734;28;20041;-71
2021/04/02 08:44:36;;;;;;;12.55;8.30;;;9.00;86.40;;;;;;5031268;28;20358;-71
2021/04/02 08:47:04;;;;;;;11.23;7.95;;;8.90;86.80;;;;;;5027778;28;20029;-70
2021/04/02 08:49:41;;;;;;;13.82;8.45;;;9.00;87.00;;;;;;5035054;28;20029;-71
2021/04/02 08:52:13;;;;;;;10.90;7.18;;;8.90;87.10;;;;;;5032081;28;20064;-70
2021/04/02 08:54:39;;;;;;;11.95;7.63;;;8.90;87.40;;;;;;5018332;28;20390;-71
2021/04/02 08:57:05;;;;;;;9.90;6.68;;;8.90;87.20;;;;;;5020232;28;20034;-71
2021/04/02 08:59:33;;;;;;;9.90;5.70;;;9.00;87.40;;;;;;5034318;28;20449;-71
2021/04/02 09:01:59;;;;;;;7.63;5.18;;;9.00;87.10;;;;;;5031952;28;20032;-72
2021/04/02 09:04:25;;;;;;;7.82;5.55;;;9.00;86.70;;;;;;5030294;28;20083;-72
2021/04/02 09:06:51;;;;;;;8.25;5.03;;;9.10;86.80;;;;;;5004975;28;20477;-72
2021/04/02 09:09:21;;;;;;;9.52;6.82;;;9.10;87.00;;;;;;5034432;28;20045;-71
2021/04/02 09:11:52;;;;;;;10.25;6.38;;;9.10;87.00;;;;;;5031063;28;20079;-72
2021/04/02 09:14:18;;;;;;;8.05;5.13;;;9.10;86.90;;;;;;5010499;28;20629;-70
2021/04/02 09:16:46;;;;;;;7.70;5.10;;;9.30;86.80;;;;;;5002287;28;20474;-71
2021/04/02 09:19:13;;;;;;;8.25;4.50;;;9.30;86.40;;;;;;5034094;28;20037;-73
2021/04/02 09:21:40;;;;;;;8.50;5.20;;;9.30;86.20;;;;;;5030350;28;20053;-72
2021/04/02 09:24:06;;;;;;;6.95;4.55;;;9.40;85.70;;;;;;5029632;28;20033;-73
2021/04/02 09:26:42;;;;;;;7.00;5.05;;;9.40;85.30;;;;;;5028749;28;20053;-72
2021/04/02 09:29:12;;;;;;;6.93;4.80;;;9.60;85.00;;;;;;5033674;28;20421;-72
2021/04/02 09:31:41;;;;;;;7.72;4.75;;;9.60;84.70;;;;;;5030554;28;20113;-72
2021/04/02 09:34:09;;;;;;;8.35;5.22;;;9.60;84.40;;;;;;5033824;28;20102;-72
2021/04/02 09:36:37;;;;;;;7.32;5.40;;;9.70;83.80;;;;;;5030633;28;20022;-72
2021/04/02 09:39:10;;;;;;;6.95;5.20;;;9.70;83.70;;;;;;5031467;28;20032;-72
2021/04/02 09:41:39;;;;;;;7.22;5.10;;;9.80;83.60;;;;;;5030687;28;20040;-72
2021/04/02 09:44:08;;;;;;;6.97;5.25;;;9.80;82.80;;;;;;5016446;28;20037;-71
2021/04/02 09:46:36;;;;;;;6.07;4.47;;;9.80;82.40;;;;;;5030875;28;20433;-72
2021/04/02 09:49:22;;;;;;;7.50;4.85;;;9.80;82.60;;;;;;5033340;28;20060;-71
2021/04/02 09:51:53;;;;;;;7.15;4.75;;;9.90;82.30;;;;;;5030396;28;20095;-72
2021/04/02 09:54:20;;;;;;;6.90;5.25;;;10.00;81.40;;;;;;5027594;28;20108;-72
2021/04/02 09:56:47;;;;;;;7.50;5.10;;;10.10;82.10;;;;;;5016214;28;20386;-73
2021/04/02 09:59:14;;;;;;;5.35;4.10;;;10.30;80.40;;;;;;5032970;28;20452;-71
2021/04/02 10:01:41;;;;;;;4.88;3.72;;;10.40;80.20;;;;;;5026246;28;20061;-72
2021/04/02 10:04:08;;;;;;;6.03;4.03;;;10.50;79.80;;;;;;5013310;28;20061;-71
2021/04/02 10:06:34;;;;;;;5.50;3.70;;;10.60;79.40;;;;;;5012862;28;20355;-72
2021/04/02 10:09:00;;;;;;;5.05;3.83;;;10.60;77.90;;;;;;5010608;28;20038;-72
2021/04/02 10:11:26;;;;;;;5.32;3.17;;;10.60;76.90;;;;;;5011168;28;20033;-71
2021/04/02 10:13:52;;;;;;;3.92;3.08;;;10.70;77.00;;;;;;5002696;28;20083;-72
2021/04/02 10:16:19;;;;;;;5.40;3.20;;;10.70;76.70;;;;;;5011371;28;20486;-73
2021/04/02 10:18:47;;;;;;;4.85;3.33;;;10.80;75.60;;;;;;5019309;28;20113;-72
2021/04/02 10:21:13;;;;;;;5.47;3.42;;;10.90;76.00;;;;;;5018152;28;20091;-73
2021/04/02 10:23:39;;;;;;;4.25;3.20;;;11.00;74.40;;;;;;5032669;28;20439;-71
2021/04/02 10:26:04;;;;;;;4.97;3.30;;;11.10;73.50;;;;;;5020401;28;20108;-72
2021/04/02 10:28:31;;;;;;;4.53;3.08;;;11.20;74.30;;;;;;5001672;28;20057;-71
2021/04/02 10:30:57;;;;;;;4.22;2.60;;;11.40;73.00;;;;;;5008996;28;20490;-73
2021/04/02 10:33:23;;;;;;;4.57;2.10;;;11.50;71.80;;;;;;5028522;28;20033;-72
2021/04/02 10:35:49;;;;;;;6.38;2.30;;;11.50;69.70;;;;;;5019857;28;20092;-71
2021/04/02 10:38:15;;;;;;;3.90;2.25;;;11.50;66.90;;;;;;5013970;28;20025;-74
2021/04/02 10:40:40;;;;;;;4.15;2.28;;;11.50;67.90;;;;;;5012019;28;20057;-73
2021/04/02 10:43:07;;;;;;;2.78;1.90;;;11.40;65.20;;;;;;5021332;28;20025;-70
2021/04/02 10:45:33;;;;;;;3.15;1.77;;;11.50;66.30;;;;;;5025023;28;20120;-73
2021/04/02 10:47:58;;;;;;;2.60;1.67;;;11.60;65.80;;;;;;5013830;28;20113;-71
2021/04/02 10:50:25;;;;;;;3.63;1.58;;;11.60;64.40;;;;;;5012651;28;20038;-71
2021/04/02 10:52:51;;;;;;;3.05;1.67;;;11.70;64.20;;;;;;5021862;28;20062;-70
2021/04/02 10:55:17;;;;;;;3.75;1.95;;;11.70;63.30;;;;;;5012579;28;20625;-73
2021/04/02 10:57:43;;;;;;;2.67;1.60;;;11.80;63.00;;;;;;4997470;28;20549;-73
2021/04/02 11:00:11;;;;;;;4.10;1.70;;;11.90;62.20;;;;;;5012077;28;20084;-74
2021/04/02 11:02:37;;;;;;;2.28;1.55;;;12.00;61.70;;;;;;5021398;28;20037;-74
2021/04/02 11:05:03;;;;;;;4.57;1.90;;;12.00;59.00;;;;;;5015898;28;20080;-71
2021/04/02 11:07:29;;;;;;;2.40;1.55;;;12.00;59.20;;;;;;5009552;28;20425;-73
2021/04/02 11:09:54;;;;;;;3.83;1.80;;;12.00;59.10;;;;;;4993812;28;20042;-76
2021/04/02 11:12:20;;;;;;;3.70;2.08;;;12.10;59.60;;;;;;5014603;28;20546;-73
2021/04/02 11:14:45;;;;;;;3.85;1.60;;;12.10;59.80;;;;;;5017707;28;20073;-75
2021/04/02 11:17:11;;;;;;;2.22;1.50;;;12.20;60.20;;;;;;5007214;28;20399;-70
2021/04/02 11:19:39;;;;;;;3.00;1.80;;;12.30;59.40;;;;;;5003289;28;20026;-74
2021/04/02 11:22:17;;;;;;;4.05;1.73;;;12.30;59.40;;;;;;5010551;28;20185;-74
2021/04/02 11:24:42;;;;;;;3.88;1.98;;;12.40;59.70;;;;;;5010521;28;20459;-74
2021/04/02 11:27:08;;;;;;;4.13;1.98;;;12.40;58.70;;;;;;5001976;28;20364;-75
2021/04/02 11:29:34;;;;;;;4.78;2.03;;;12.50;58.20;;;;;;5011720;28;20045;-75
2021/04/02 11:31:59;;;;;;;4.95;2.42;;;12.50;57.10;;;;;;5011573;28;20018;-76
2021/04/02 11:34:26;;;;;;;3.63;2.00;;;12.60;57.10;;;;;;5020985;28;20061;-75
2021/04/02 11:36:52;;;;;;;3.75;2.10;;;12.60;57.40;;;;;;5026161;28;20037;-74
2021/04/02 11:39:17;;;;;;;3.95;2.25;;;12.60;57.30;;;;;;5008823;28;20100;-75
2021/04/02 11:41:43;;;;;;;2.58;1.88;;;12.70;57.40;;;;;;5015582;28;20037;-75
2021/04/02 11:44:09;;;;;;;2.92;1.80;;;12.70;56.50;;;;;;5025553;28;20489;-76
2021/04/02 11:46:34;;;;;;;4.35;1.92;;;12.70;57.00;;;;;;5017167;28;20503;-75
2021/04/02 11:49:00;;;;;;;3.75;2.10;;;12.70;57.50;;;;;;5012135;28;20081;-76
2021/04/02 11:51:26;;;;;;;6.03;2.15;;;12.80;57.30;;;;;;5014064;28;20124;-75
2021/04/02 11:53:52;;;;;;;1.90;1.45;;;12.80;57.10;;;;;;5009745;28;20101;-76
2021/04/02 11:56:17;;;;;;;3.38;1.77;;;12.90;56.50;;;;;;5002151;28;20026;-75
2021/04/02 11:58:42;;;;;;;2.78;1.92;;;13.00;56.50;;;;;;5013529;28;20041;-76
2021/04/02 12:01:08;;;;;;;4.20;1.92;;;13.00;56.00;;;;;;5010367;28;20041;-76
2021/04/02 12:03:33;;;;;;;2.88;1.67;;;13.00;56.00;;;;;;5012449;28;20109;-74
2021/04/02 12:05:59;;;;;;;2.60;1.70;;;13.10;55.30;;;;;;5004117;28;20029;-76
2021/04/02 12:08:25;;;;;;;3.28;1.60;;;13.20;55.30;;;;;;5007844;28;20030;-75
2021/04/02 12:10:50;;;;;;;2.20;1.50;;;13.30;55.40;;;;;;5011149;28;20030;-76
2021/04/02 12:13:16;;;;;;;2.90;1.65;;;13.40;55.10;;;;;;5012091;28;20600;-76
2021/04/02 12:15:41;;;;;;;2.45;1.55;;;13.40;54.90;;;;;;5010944;28;20029;-76
2021/04/02 12:18:07;;;;;;;4.45;1.80;;;13.50;53.50;;;;;;5007761;28;20037;-76
2021/04/02 12:20:33;;;;;;;2.60;1.30;;;13.50;53.40;;;;;;5011265;28;20018;-76
2021/04/02 12:22:59;;;;;;;3.08;1.63;;;13.50;52.00;;;;;;5012544;28;20644;-76
2021/04/02 12:25:24;;;;;;;2.55;1.50;;;13.50;52.60;;;;;;5015268;28;20113;-76
2021/04/02 12:27:49;;;;;;;2.30;1.38;;;13.60;53.00;;;;;;5015101;28;20030;-76
2021/04/02 12:30:16;;;;;;;4.53;1.30;;;13.60;52.30;;;;;;5015040;28;20433;-74
2021/04/02 12:32:43;;;;;;;2.72;1.50;;;13.60;51.10;;;;;;4997415;28;20031;-76
2021/04/02 12:35:10;;;;;;;3.05;1.25;;;13.60;50.80;;;;;;5015166;28;20056;-77
2021/04/02 12:37:36;;;;;;;3.45;1.67;;;13.60;50.80;;;;;;5014765;28;20402;-79
2021/04/02 12:40:10;;;;;;;2.38;1.30;;;13.50;50.40;;;;;;5015373;28;20113;-75
2021/04/02 12:42:36;;;;;;;;;;;13.50;50.90;;;;;;5010889;28;20117;-75
2021/04/02 12:45:02;;;;;;;3.92;1.60;;;13.60;51.20;;;;;;5014987;28;19988;-76
2021/04/02 12:47:28;;;;;;;4.00;1.50;;;13.60;51.70;;;;;;5015483;28;20018;-76
2021/04/02 12:49:53;;;;;;;2.28;1.42;;;13.80;51.40;;;;;;4994767;28;20065;-74
2021/04/02 12:52:19;;;;;;;9.35;1.70;;;13.90;51.50;;;;;;5021661;28;20160;-75
2021/04/02 12:54:46;;;;;;;4.63;1.75;;;14.00;50.50;;;;;;5012120;28;20030;-76
2021/04/02 12:57:11;;;;;;;4.40;1.60;;;14.00;49.70;;;;;;5010168;28;20477;-76